Time;durP1;ratioP1;P1;durP2;ratioP2;P2;SDS_P1;SDS_P2;PMS_P1;PMS_P2;Temp;Humidity;BMP_temperature;BMP_pressure;BME280_temperature;BME280_humidity;BME280_pressure;Samples;Min_cycle;Max_cycle;Signal;HPM_P1;HPM_P2
2021/07/16 00:00:13;;;;;;;6.57;6.38;;;16.20;99.90;;;;;;5076015;28;20039;-62
2021/07/16 00:02:44;;;;;;;6.22;6.00;;;16.20;99.90;;;;;;5075724;28;20016;-60
2021/07/16 00:05:12;;;;;;;5.60;5.40;;;16.30;99.90;;;;;;5075868;28;20047;-62
2021/07/16 00:07:40;;;;;;;6.38;6.07;;;16.30;99.90;;;;;;5075885;28;20554;-62
2021/07/16 00:10:10;;;;;;;5.47;5.18;;;16.40;99.90;;;;;;5075953;28;20081;-60
2021/07/16 00:12:38;;;;;;;6.10;5.80;;;16.40;99.90;;;;;;5075860;28;20132;-63
2021/07/16 00:15:08;;;;;;;5.88;5.47;;;16.50;99.90;;;;;;5075761;28;20262;-64
2021/07/16 00:17:35;;;;;;;5.90;5.70;;;16.70;99.90;;;;;;5075617;28;20170;-65
2021/07/16 00:20:04;;;;;;;5.30;5.10;;;16.70;99.90;;;;;;5075670;28;20100;-65
2021/07/16 00:22:31;;;;;;;5.75;5.40;;;16.80;99.90;;;;;;5075727;28;20039;-66
2021/07/16 00:24:58;;;;;;;5.20;5.00;;;16.70;99.90;;;;;;5074905;28;20024;-64
2021/07/16 00:27:26;;;;;;;5.32;5.05;;;16.70;99.90;;;;;;5075541;28;20495;-68
2021/07/16 00:29:53;;;;;;;5.18;4.97;;;16.80;99.90;;;;;;5075505;28;20082;-67
2021/07/16 00:32:20;;;;;;;5.40;5.20;;;16.90;99.90;;;;;;5075446;28;20028;-67
2021/07/16 00:34:48;;;;;;;5.13;4.95;;;17.00;99.90;;;;;;5075378;28;20035;-67
2021/07/16 00:37:15;;;;;;;5.60;5.20;;;17.00;99.90;;;;;;5075139;28;20037;-62
2021/07/16 00:39:42;;;;;;;5.30;4.90;;;17.00;99.90;;;;;;5075183;28;20103;-62
2021/07/16 00:42:10;;;;;;;5.22;5.00;;;17.20;99.90;;;;;;5075225;28;20411;-62
2021/07/16 00:44:38;;;;;;;5.47;5.18;;;17.40;99.90;;;;;;5075361;28;20024;-62
2021/07/16 00:47:09;;;;;;;4.32;4.07;;;17.50;99.90;;;;;;5075180;28;20039;-62
2021/07/16 00:49:37;;;;;;;4.70;4.43;;;17.40;99.90;;;;;;5075158;28;20029;-62
2021/07/16 00:52:05;;;;;;;4.22;4.13;;;17.40;99.90;;;;;;5075189;28;20063;-62
2021/07/16 00:54:33;;;;;;;3.70;3.60;;;17.30;99.90;;;;;;5075009;28;20025;-62
2021/07/16 00:57:01;;;;;;;3.92;3.83;;;17.20;99.90;;;;;;5074767;28;20075;-64
2021/07/16 00:59:29;;;;;;;5.28;3.75;;;17.40;99.90;;;;;;5075080;28;20024;-67
2021/07/16 01:01:56;;;;;;;3.70;3.60;;;17.40;99.90;;;;;;5074833;28;20425;-65
2021/07/16 01:04:25;;;;;;;4.10;3.90;;;17.50;99.90;;;;;;5074786;28;20481;-64
2021/07/16 01:06:53;;;;;;;4.00;3.70;;;17.40;99.90;;;;;;5074909;28;20154;-64
2021/07/16 01:09:20;;;;;;;3.60;3.50;;;17.50;99.90;;;;;;5074852;28;20031;-62
2021/07/16 01:11:49;;;;;;;3.33;3.20;;;17.50;99.90;;;;;;5074690;28;20046;-64
2021/07/16 01:14:18;;;;;;;4.00;3.80;;;17.30;99.90;;;;;;5074737;28;20082;-63
2021/07/16 01:16:45;;;;;;;4.00;3.70;;;17.00;99.90;;;;;;5074493;28;20036;-68
2021/07/16 01:19:23;;;;;;;3.80;3.60;;;16.90;99.90;;;;;;5074636;28;20031;-63
2021/07/16 01:21:52;;;;;;;3.90;3.75;;;17.10;99.90;;;;;;5074646;28;20024;-63
2021/07/16 01:24:19;;;;;;;3.63;3.53;;;17.40;99.90;;;;;;5074630;28;20020;-62
2021/07/16 01:26:46;;;;;;;4.63;3.55;;;17.40;99.90;;;;;;5074615;28;20477;-63
2021/07/16 01:29:14;;;;;;;3.38;3.17;;;17.70;99.90;;;;;;5074562;28;20027;-59
2021/07/16 01:31:42;;;;;;;5.03;2.83;;;17.80;99.10;;;;;;5074428;28;20017;-61
2021/07/16 01:34:10;;;;;;;3.22;3.13;;;17.60;99.10;;;;;;5074453;28;20031;-64
2021/07/16 01:36:37;;;;;;;3.10;3.00;;;17.70;99.80;;;;;;5073200;28;20043;-62
2021/07/16 01:39:05;;;;;;;3.47;3.33;;;17.80;99.90;;;;;;5074502;28;20070;-62
2021/07/16 01:41:32;;;;;;;3.40;3.20;;;18.00;99.70;;;;;;5074927;28;20035;-59
2021/07/16 01:44:00;;;;;;;3.72;3.42;;;18.00;98.10;;;;;;5074277;28;20054;-59
2021/07/16 01:46:27;;;;;;;3.33;3.13;;;17.90;98.90;;;;;;5074212;28;20055;-58
2021/07/16 01:48:54;;;;;;;3.33;3.15;;;17.90;99.70;;;;;;5073853;28;20028;-59
2021/07/16 01:51:22;;;;;;;3.00;2.80;;;18.00;98.00;;;;;;5073930;28;20542;-59
2021/07/16 01:53:49;;;;;;;3.33;3.13;;;18.00;97.90;;;;;;5073829;28;20065;-58
2021/07/16 01:56:19;;;;;;;2.67;2.58;;;18.20;98.50;;;;;;5073342;28;20044;-59
2021/07/16 01:58:47;;;;;;;2.50;2.40;;;18.20;97.80;;;;;;5073634;28;20016;-57
2021/07/16 02:01:15;;;;;;;3.08;2.97;;;18.40;97.90;;;;;;5073688;28;20024;-58
2021/07/16 02:03:46;;;;;;;2.92;2.83;;;18.50;97.90;;;;;;5073482;28;20066;-60
2021/07/16 02:06:16;;;;;;;2.80;2.60;;;18.60;97.30;;;;;;5073504;28;20024;-63
2021/07/16 02:08:45;;;;;;;3.10;3.00;;;18.50;96.60;;;;;;5073513;28;20016;-61
2021/07/16 02:11:12;;;;;;;2.67;2.50;;;18.50;96.50;;;;;;5073356;28;20032;-62
2021/07/16 02:13:40;;;;;;;2.72;2.63;;;18.60;95.70;;;;;;5073705;28;20028;-61
2021/07/16 02:16:07;;;;;;;2.85;2.70;;;18.70;95.40;;;;;;5073399;28;20431;-58
2021/07/16 02:18:35;;;;;;;3.00;2.90;;;18.60;95.70;;;;;;5073420;28;20025;-62
2021/07/16 02:21:02;;;;;;;2.60;2.50;;;18.30;95.70;;;;;;5073226;28;20464;-61
2021/07/16 02:23:30;;;;;;;2.90;2.80;;;18.10;96.40;;;;;;5073373;28;20021;-63
2021/07/16 02:25:58;;;;;;;3.30;3.00;;;17.90;96.80;;;;;;5073153;28;20023;-60
2021/07/16 02:28:29;;;;;;;2.60;2.50;;;17.60;97.20;;;;;;5073201;28;20031;-60
2021/07/16 02:30:59;;;;;;;2.80;2.63;;;17.30;97.80;;;;;;5073415;28;20035;-61
2021/07/16 02:33:26;;;;;;;3.10;2.90;;;17.00;99.50;;;;;;5073214;28;20024;-61
2021/07/16 02:35:54;;;;;;;3.90;3.70;;;16.50;99.90;;;;;;5073182;28;20027;-61
2021/07/16 02:38:22;;;;;;;4.20;4.00;;;16.10;99.90;;;;;;5072989;28;20395;-61
2021/07/16 02:40:50;;;;;;;4.90;4.70;;;15.70;99.90;;;;;;5073104;28;20337;-60
2021/07/16 02:43:18;;;;;;;6.13;5.72;;;15.50;99.90;;;;;;5073222;28;20021;-60
2021/07/16 02:45:45;;;;;;;7.93;7.25;;;15.00;99.90;;;;;;5073029;28;20101;-61
2021/07/16 02:48:14;;;;;;;6.70;6.40;;;14.50;99.90;;;;;;5072559;28;20044;-59
2021/07/16 02:50:43;;;;;;;6.25;5.95;;;14.50;99.90;;;;;;5072862;28;20035;-62
2021/07/16 02:53:13;;;;;;;5.20;4.95;;;;;;;;;;5072905;28;20407;-61
2021/07/16 02:55:41;;;;;;;3.88;3.70;;;14.40;99.90;;;;;;5072852;28;20114;-61
2021/07/16 02:58:11;;;;;;;4.40;4.30;;;14.10;99.90;;;;;;5072784;28;20485;-60
2021/07/16 03:00:39;;;;;;;4.00;3.75;;;14.50;99.90;;;;;;5073043;28;20025;-60
2021/07/16 03:03:08;;;;;;;4.20;3.80;;;14.60;99.90;;;;;;5072765;28;20025;-60
2021/07/16 03:05:37;;;;;;;3.60;3.50;;;14.60;99.90;;;;;;5072758;28;20047;-60
2021/07/16 03:08:06;;;;;;;3.75;3.55;;;14.70;99.90;;;;;;5072741;28;20025;-61
2021/07/16 03:10:40;;;;;;;3.88;3.78;;;14.80;99.90;;;;;;5072922;28;20029;-62
2021/07/16 03:13:10;;;;;;;3.20;3.10;;;14.80;99.90;;;;;;5072930;28;20028;-63
2021/07/16 03:15:37;;;;;;;3.50;3.40;;;14.90;99.90;;;;;;5072865;28;20025;-62
2021/07/16 03:18:06;;;;;;;2.92;2.83;;;15.00;99.90;;;;;;5072745;28;20023;-62
2021/07/16 03:20:39;;;;;;;3.10;2.90;;;15.00;99.90;;;;;;5072936;28;20013;-62
2021/07/16 03:23:07;;;;;;;3.40;3.30;;;15.20;99.90;;;;;;5072908;28;20024;-62
2021/07/16 03:25:35;;;;;;;3.33;3.15;;;15.40;99.90;;;;;;5072798;28;20370;-61
2021/07/16 03:28:04;;;;;;;3.22;3.00;;;15.50;99.90;;;;;;5072763;28;20096;-62
2021/07/16 03:30:33;;;;;;;3.40;3.20;;;15.60;99.90;;;;;;5072746;28;20027;-61
2021/07/16 03:33:01;;;;;;;3.00;2.80;;;15.80;99.10;;;;;;5072743;28;20060;-62
2021/07/16 03:35:29;;;;;;;3.20;3.00;;;15.90;97.70;;;;;;5072642;28;20082;-61
2021/07/16 03:37:57;;;;;;;2.95;2.80;;;16.20;97.20;;;;;;5072599;28;20024;-61
2021/07/16 03:40:29;;;;;;;2.85;2.65;;;16.30;96.60;;;;;;5072569;28;20024;-62
2021/07/16 03:43:00;;;;;;;2.70;2.50;;;16.20;95.90;;;;;;5073163;28;20111;-61
2021/07/16 03:45:28;;;;;;;3.05;2.80;;;16.30;95.70;;;;;;5072650;28;20361;-61
2021/07/16 03:47:56;;;;;;;2.88;2.70;;;16.20;95.80;;;;;;5072509;28;20033;-61
2021/07/16 03:50:24;;;;;;;2.90;2.80;;;16.10;95.60;;;;;;5072628;28;20028;-62
2021/07/16 03:52:53;;;;;;;2.88;2.67;;;16.10;96.90;;;;;;5072789;28;20070;-62
2021/07/16 03:55:21;;;;;;;2.90;2.80;;;16.20;96.20;;;;;;5072542;28;20079;-61
2021/07/16 03:57:50;;;;;;;2.90;2.70;;;16.40;96.50;;;;;;5072266;28;20517;-61
2021/07/16 04:00:25;;;;;;;2.92;2.78;;;16.30;96.30;;;;;;5073812;28;20013;-58
2021/07/16 04:02:53;;;;;;;2.95;2.70;;;16.30;97.70;;;;;;5076103;28;20020;-60
2021/07/16 04:05:20;;;;;;;2.90;2.70;;;16.50;96.90;;;;;;5076046;28;20434;-61
2021/07/16 04:07:50;;;;;;;3.00;2.90;;;16.30;96.80;;;;;;5076051;28;20021;-60
2021/07/16 04:10:23;;;;;;;4.15;3.17;;;16.50;96.00;;;;;;5075883;28;20032;-61
2021/07/16 04:12:59;;;;;;;2.95;2.75;;;16.50;96.40;;;;;;5075880;28;20036;-60
2021/07/16 04:15:26;;;;;;;3.75;3.42;;;16.40;96.10;;;;;;5075823;28;20021;-60
2021/07/16 04:17:59;;;;;;;3.53;3.22;;;16.60;95.90;;;;;;5075884;28;20036;-60
2021/07/16 04:20:28;;;;;;;2.88;2.78;;;16.60;94.60;;;;;;5076131;28;20024;-61
2021/07/16 04:22:57;;;;;;;3.08;2.80;;;16.60;94.40;;;;;;5075792;28;20017;-59
2021/07/16 04:25:25;;;;;;;4.50;3.00;;;16.60;93.80;;;;;;5075782;28;20020;-61
2021/07/16 04:27:56;;;;;;;5.18;2.88;;;16.70;93.30;;;;;;5075535;28;20031;-61
2021/07/16 04:30:25;;;;;;;6.38;3.03;;;16.70;92.60;;;;;;5075565;28;20029;-60
2021/07/16 04:32:55;;;;;;;3.70;2.92;;;16.70;92.30;;;;;;5075479;28;20028;-60
2021/07/16 04:35:22;;;;;;;;;;;16.70;92.10;;;;;;5076103;28;20032;-61
2021/07/16 04:37:50;;;;;;;3.50;2.55;;;16.70;92.50;;;;;;5075410;28;19915;-60
2021/07/16 04:40:22;;;;;;;2.35;2.17;;;16.70;91.10;;;;;;5075193;28;20016;-62
2021/07/16 04:42:52;;;;;;;2.72;2.58;;;16.50;91.20;;;;;;5075285;28;20031;-62
2021/07/16 04:45:20;;;;;;;2.90;2.80;;;16.50;91.40;;;;;;5075325;28;20097;-61
2021/07/16 04:47:48;;;;;;;2.60;2.50;;;16.50;91.20;;;;;;5075235;28;20380;-62
2021/07/16 04:50:17;;;;;;;3.25;3.00;;;16.60;91.50;;;;;;5075236;28;20408;-62
2021/07/16 04:52:49;;;;;;;2.88;2.67;;;16.60;91.50;;;;;;5075240;28;20093;-60
2021/07/16 04:55:18;;;;;;;3.28;2.50;;;16.70;91.00;;;;;;5075053;28;20044;-60
2021/07/16 04:57:45;;;;;;;2.92;2.70;;;16.70;91.40;;;;;;5074787;28;20044;-61
2021/07/16 05:00:14;;;;;;;3.95;2.70;;;16.70;91.10;;;;;;5075108;28;20058;-60
2021/07/16 05:02:41;;;;;;;3.78;2.70;;;16.80;90.90;;;;;;5075031;28;20035;-60
2021/07/16 05:05:10;;;;;;;5.30;3.13;;;16.80;90.90;;;;;;5075057;28;20362;-63
2021/07/16 05:07:37;;;;;;;3.00;2.70;;;16.90;90.60;;;;;;5074906;28;20032;-62
2021/07/16 05:10:06;;;;;;;3.28;3.03;;;16.90;91.30;;;;;;5075056;28;20437;-62
2021/07/16 05:12:37;;;;;;;3.10;2.90;;;16.90;90.90;;;;;;5074557;28;20040;-61
2021/07/16 05:15:07;;;;;;;3.22;2.92;;;17.00;91.10;;;;;;5074936;28;20052;-62
2021/07/16 05:17:35;;;;;;;3.22;2.42;;;17.00;90.40;;;;;;5074649;28;20028;-61
2021/07/16 05:20:06;;;;;;;2.70;2.50;;;17.00;89.10;;;;;;5075224;28;20104;-61
2021/07/16 05:22:33;;;;;;;2.90;2.70;;;17.00;90.10;;;;;;5074723;28;20020;-61
2021/07/16 05:25:03;;;;;;;3.00;2.80;;;17.00;90.00;;;;;;5074590;28;20022;-60
2021/07/16 05:27:30;;;;;;;4.10;3.45;;;16.90;89.20;;;;;;5074185;28;20025;-59
2021/07/16 05:29:58;;;;;;;3.05;2.85;;;;;;;;;;5073032;28;20029;-63
2021/07/16 05:32:25;;;;;;;3.13;2.95;;;16.80;94.50;;;;;;5074339;28;20100;-62
2021/07/16 05:34:52;;;;;;;3.70;3.50;;;16.70;94.80;;;;;;5074435;28;20016;-61
2021/07/16 05:37:19;;;;;;;3.30;3.10;;;;;;;;;;5074082;28;20158;-60
2021/07/16 05:39:46;;;;;;;3.30;3.00;;;;;;;;;;5074325;28;20021;-60
2021/07/16 05:42:14;;;;;;;3.30;3.20;;;16.80;96.30;;;;;;5074037;28;20027;-61
2021/07/16 05:44:41;;;;;;;3.90;3.60;;;16.80;96.80;;;;;;5074114;28;20047;-60
2021/07/16 05:47:09;;;;;;;3.85;3.55;;;16.80;96.00;;;;;;5074024;28;20025;-62
2021/07/16 05:49:36;;;;;;;3.80;3.50;;;16.70;94.90;;;;;;5073655;28;20021;-62
2021/07/16 05:52:04;;;;;;;3.58;3.38;;;16.80;94.20;;;;;;5073655;28;20089;-61
2021/07/16 05:54:31;;;;;;;3.63;3.33;;;16.60;87.70;;;;;;5074012;28;20029;-61
2021/07/16 05:56:59;;;;;;;4.07;3.65;;;16.50;87.30;;;;;;5073436;28;20381;-60
2021/07/16 05:59:26;;;;;;;4.00;3.78;;;16.50;87.90;;;;;;5073946;28;20126;-63
2021/07/16 06:01:53;;;;;;;3.80;3.50;;;;;;;;;;5073643;28;20023;-61
2021/07/16 06:04:20;;;;;;;3.30;3.10;;;;;;;;;;5072167;28;20389;-61
2021/07/16 06:06:48;;;;;;;3.97;3.10;;;;;;;;;;5073455;28;20024;-62
2021/07/16 06:09:16;;;;;;;3.70;3.50;;;;;;;;;;5073328;28;20439;-61
2021/07/16 06:11:43;;;;;;;3.40;3.20;;;;;;;;;;5073460;28;20024;-62
2021/07/16 06:14:10;;;;;;;3.33;3.03;;;;;;;;;;5073210;28;20416;-63
2021/07/16 06:16:37;;;;;;;3.50;3.20;;;;;;;;;;5073113;28;20431;-62
2021/07/16 06:19:04;;;;;;;3.30;3.10;;;;;;;;;;5071816;28;20032;-63
2021/07/16 06:21:31;;;;;;;3.30;3.10;;;;;;;;;;5073257;28;20028;-63
2021/07/16 06:23:58;;;;;;;3.33;3.22;;;;;;;;;;5072674;28;20024;-62
2021/07/16 06:26:26;;;;;;;3.40;3.30;;;;;;;;;;5073192;28;20103;-64
2021/07/16 06:28:53;;;;;;;3.28;3.00;;;15.90;97.90;;;;;;5073227;28;20016;-63
2021/07/16 06:31:20;;;;;;;3.47;3.17;;;15.90;95.00;;;;;;5073413;28;20025;-63
2021/07/16 06:33:48;;;;;;;3.97;3.40;;;15.80;96.30;;;;;;5073199;28;20048;-60
2021/07/16 06:36:15;;;;;;;3.28;3.15;;;15.60;91.10;;;;;;5073300;28;20374;-62
2021/07/16 06:38:42;;;;;;;4.75;3.40;;;15.50;91.50;;;;;;5072897;28;20472;-63
2021/07/16 06:41:10;;;;;;;3.50;3.40;;;;;;;;;;5072909;28;20542;-61
2021/07/16 06:43:37;;;;;;;3.72;3.40;;;;;;;;;;5072811;28;20074;-62
2021/07/16 06:46:04;;;;;;;3.20;3.00;;;;;;;;;;5072818;28;20031;-62
2021/07/16 06:48:32;;;;;;;3.30;3.00;;;;;;;;;;5073016;28;20028;-58
2021/07/16 06:50:59;;;;;;;3.00;2.90;;;;;;;;;;5072810;28;20032;-58
2021/07/16 06:53:26;;;;;;;3.03;2.88;;;;;;;;;;5072736;28;20016;-58
2021/07/16 06:55:53;;;;;;;3.30;3.00;;;;;;;;;;5072448;28;20044;-58
2021/07/16 06:58:20;;;;;;;3.17;3.00;;;;;;;;;;5072884;28;20033;-60
2021/07/16 07:00:48;;;;;;;3.50;3.40;;;;;;;;;;5072834;28;20040;-59
2021/07/16 07:03:15;;;;;;;3.65;3.30;;;;;;;;;;5072502;28;20040;-57
2021/07/16 07:05:43;;;;;;;3.38;3.13;;;14.90;95.80;;;;;;5072791;28;20021;-59
2021/07/16 07:08:10;;;;;;;3.17;2.97;;;14.80;95.80;;;;;;5072763;28;20021;-60
2021/07/16 07:10:37;;;;;;;3.83;3.20;;;14.60;96.20;;;;;;5072575;28;20389;-60
2021/07/16 07:13:08;;;;;;;2.88;2.78;;;14.50;96.40;;;;;;5072746;28;20021;-61
2021/07/16 07:15:38;;;;;;;3.20;3.00;;;14.40;94.30;;;;;;5072735;28;20035;-61
2021/07/16 07:18:07;;;;;;;3.25;2.97;;;14.20;94.60;;;;;;5072565;28;20032;-60
2021/07/16 07:20:36;;;;;;;3.42;3.20;;;14.20;95.00;;;;;;5072565;28;20434;-60
2021/07/16 07:23:05;;;;;;;3.28;3.00;;;14.10;95.00;;;;;;5072605;28;20024;-60
2021/07/16 07:25:33;;;;;;;3.20;3.05;;;14.10;95.10;;;;;;5072495;28;20052;-60
2021/07/16 07:28:00;;;;;;;3.42;3.20;;;14.00;95.40;;;;;;5072475;28;20024;-60
2021/07/16 07:30:28;;;;;;;3.35;3.15;;;13.80;95.50;;;;;;5072564;28;20099;-60
2021/07/16 07:32:55;;;;;;;3.22;3.03;;;13.80;95.80;;;;;;5072483;28;20540;-59
2021/07/16 07:35:22;;;;;;;2.80;2.70;;;;;;;;;;5075737;28;20103;-59
2021/07/16 07:37:50;;;;;;;3.00;2.80;;;;;;;;;;5076286;28;20104;-59
2021/07/16 07:40:17;;;;;;;3.45;3.15;;;;;;;;;;5076466;28;20074;-59
2021/07/16 07:42:45;;;;;;;3.47;3.10;;;;;;;;;;5076264;28;20025;-59
2021/07/16 07:45:13;;;;;;;3.42;3.20;;;;;;;;;;5076283;28;20047;-61
2021/07/16 07:47:40;;;;;;;3.38;3.17;;;;;;;;;;5076259;28;20028;-58
2021/07/16 07:50:09;;;;;;;2.95;2.85;;;;;;;;;;5076376;28;20032;-58
2021/07/16 07:52:37;;;;;;;2.95;2.75;;;;;;;;;;5076151;28;20150;-58
2021/07/16 07:55:04;;;;;;;2.25;2.15;;;;;;;;;;5076155;28;20095;-59
2021/07/16 07:57:31;;;;;;;3.00;2.40;;;;;;;;;;5075873;28;20036;-58
2021/07/16 07:59:58;;;;;;;2.55;2.40;;;13.80;99.90;;;;;;5076006;28;20455;-59
2021/07/16 08:02:25;;;;;;;2.20;2.03;;;13.60;96.00;;;;;;5075931;28;20077;-59
2021/07/16 08:04:53;;;;;;;4.22;2.30;;;13.50;96.80;;;;;;5075915;28;20020;-60
2021/07/16 08:07:20;;;;;;;3.25;2.67;;;13.40;96.50;;;;;;5075808;28;20032;-60
2021/07/16 08:09:47;;;;;;;2.83;2.55;;;13.50;96.50;;;;;;5075818;28;20387;-60
2021/07/16 08:12:15;;;;;;;2.60;2.40;;;13.50;96.40;;;;;;5075872;28;20034;-60
2021/07/16 08:14:42;;;;;;;2.90;2.70;;;13.50;96.30;;;;;;5076057;28;20044;-58
2021/07/16 08:17:10;;;;;;;2.83;2.63;;;13.50;96.40;;;;;;5075567;28;20361;-59
2021/07/16 08:19:37;;;;;;;3.28;3.08;;;13.50;96.30;;;;;;5075644;28;20019;-58
2021/07/16 08:22:05;;;;;;;3.70;2.88;;;13.40;96.60;;;;;;5075646;28;20025;-58
2021/07/16 08:24:32;;;;;;;4.07;3.17;;;13.40;96.40;;;;;;5075417;28;20021;-58
2021/07/16 08:26:59;;;;;;;3.00;2.80;;;13.30;96.60;;;;;;5075550;28;20366;-60
2021/07/16 08:29:27;;;;;;;3.00;2.80;;;13.30;97.80;;;;;;5075506;28;20033;-61
2021/07/16 08:31:54;;;;;;;3.63;2.80;;;13.50;96.80;;;;;;5075481;28;20017;-60
2021/07/16 08:34:24;;;;;;;3.13;2.92;;;;;;;;;;5075653;28;20029;-60
2021/07/16 08:36:51;;;;;;;3.10;2.50;;;13.40;99.90;;;;;;5075228;28;20392;-60
2021/07/16 08:39:19;;;;;;;3.22;2.60;;;13.50;95.70;;;;;;5075179;28;20249;-58
2021/07/16 08:41:46;;;;;;;2.95;2.65;;;13.50;95.80;;;;;;5075294;28;20036;-61
2021/07/16 08:44:15;;;;;;;3.03;2.58;;;13.40;96.30;;;;;;5075192;28;20024;-60
2021/07/16 08:46:45;;;;;;;2.70;2.50;;;13.40;96.10;;;;;;5074504;28;20056;-61
2021/07/16 08:49:15;;;;;;;3.00;2.85;;;13.40;95.90;;;;;;5075327;28;20021;-59
2021/07/16 08:51:43;;;;;;;2.58;2.47;;;13.40;96.20;;;;;;5075153;28;20025;-59
2021/07/16 08:54:15;;;;;;;2.30;2.10;;;13.30;96.30;;;;;;5075043;28;20020;-58
2021/07/16 08:56:43;;;;;;;2.70;2.10;;;13.20;96.70;;;;;;5074769;28;20053;-61
2021/07/16 08:59:10;;;;;;;2.53;2.20;;;13.20;96.50;;;;;;5075028;28;20024;-59
2021/07/16 09:01:42;;;;;;;2.80;2.60;;;13.30;96.60;;;;;;5075139;28;20025;-60
2021/07/16 09:04:11;;;;;;;2.90;2.80;;;13.20;96.50;;;;;;5074808;28;20028;-60
2021/07/16 09:06:55;;;;;;;4.43;2.60;;;13.20;96.70;;;;;;5074783;28;20025;-61
2021/07/16 09:09:25;;;;;;;3.15;2.95;;;13.20;96.90;;;;;;5074760;28;20029;-62
2021/07/16 09:11:58;;;;;;;3.40;3.20;;;13.20;97.10;;;;;;5074873;28;20471;-59
2021/07/16 09:14:28;;;;;;;4.70;3.80;;;13.10;97.00;;;;;;5074675;28;20261;-59
2021/07/16 09:17:09;;;;;;;3.20;3.00;;;13.20;96.70;;;;;;5074577;28;20032;-60
2021/07/16 09:19:50;;;;;;;3.28;3.00;;;13.20;96.80;;;;;;5074659;28;20016;-59
2021/07/16 09:22:26;;;;;;;3.70;3.50;;;13.10;97.10;;;;;;5074302;28;20044;-61
2021/07/16 09:24:56;;;;;;;3.30;3.20;;;13.00;97.20;;;;;;5074333;28;20499;-59
2021/07/16 09:27:42;;;;;;;3.30;3.20;;;13.10;97.20;;;;;;5074376;28;20480;-60
2021/07/16 09:30:23;;;;;;;3.00;2.80;;;13.10;97.10;;;;;;5074385;28;20016;-61
2021/07/16 09:33:09;;;;;;;3.20;3.00;;;13.00;97.30;;;;;;5074199;28;20029;-60
2021/07/16 09:35:40;;;;;;;3.40;3.10;;;13.00;97.10;;;;;;5074401;28;20020;-60
2021/07/16 09:38:11;;;;;;;3.25;3.00;;;13.10;97.10;;;;;;5074216;28;20021;-60
2021/07/16 09:40:52;;;;;;;3.30;3.00;;;13.10;97.00;;;;;;5074116;28;20036;-57
2021/07/16 09:43:26;;;;;;;;;;;13.10;97.40;;;;;;5074754;28;20384;-57
2021/07/16 09:46:04;;;;;;;2.90;2.80;;;13.00;97.10;;;;;;5074169;28;20008;-59
2021/07/16 09:48:37;;;;;;;3.22;3.00;;;13.00;97.40;;;;;;5074281;28;20021;-60
2021/07/16 09:51:16;;;;;;;3.05;2.80;;;13.00;97.20;;;;;;5074194;28;20078;-59
2021/07/16 09:53:58;;;;;;;2.90;2.80;;;13.00;97.30;;;;;;5074056;28;20107;-60
2021/07/16 09:56:30;;;;;;;3.92;2.80;;;13.10;97.10;;;;;;5072424;28;20040;-59
2021/07/16 09:59:29;;;;;;;2.30;2.10;;;13.10;96.90;;;;;;5073016;28;20392;-58
2021/07/16 10:01:58;;;;;;;2.65;2.53;;;13.20;97.10;;;;;;5065808;28;20090;-60
2021/07/16 10:04:33;;;;;;;2.33;2.13;;;13.20;96.70;;;;;;5073682;28;20555;-58
2021/07/16 10:07:00;;;;;;;2.13;2.03;;;13.50;99.80;;;;;;5073637;28;20031;-60
2021/07/16 10:09:27;;;;;;;2.58;2.35;;;13.40;99.90;;;;;;5073572;28;20081;-60
2021/07/16 10:11:56;;;;;;;3.45;2.35;;;13.40;99.90;;;;;;5073668;28;20025;-59
2021/07/16 10:14:25;;;;;;;2.60;2.50;;;13.40;99.90;;;;;;5072985;28;20443;-60
2021/07/16 10:16:53;;;;;;;2.78;2.50;;;13.40;99.90;;;;;;5073509;28;20023;-59
2021/07/16 10:19:21;;;;;;;3.40;3.13;;;13.30;97.70;;;;;;5073394;28;20017;-59
2021/07/16 10:21:51;;;;;;;2.88;2.78;;;13.30;97.30;;;;;;5072216;28;20025;-60
2021/07/16 10:24:21;;;;;;;2.80;2.70;;;13.30;97.60;;;;;;5073418;28;20024;-59
2021/07/16 10:26:52;;;;;;;3.00;2.90;;;13.20;99.40;;;;;;5073409;28;20024;-59
2021/07/16 10:29:39;;;;;;;3.10;2.90;;;13.20;98.60;;;;;;5073240;28;20017;-60
2021/07/16 10:32:08;;;;;;;5.47;3.20;;;13.20;99.90;;;;;;5073861;28;20027;-61
2021/07/16 10:34:39;;;;;;;2.63;2.42;;;13.10;99.90;;;;;;5073423;28;20489;-61
2021/07/16 10:37:14;;;;;;;3.30;3.10;;;13.10;99.90;;;;;;5073128;28;20109;-60
2021/07/16 10:39:55;;;;;;;3.45;3.10;;;13.10;99.90;;;;;;5073184;28;20150;-59
2021/07/16 10:42:34;;;;;;;3.30;3.20;;;13.10;97.60;;;;;;5073583;28;20419;-60
2021/07/16 10:45:04;;;;;;;3.40;3.20;;;13.10;96.40;;;;;;5073236;28;20021;-61
2021/07/16 10:47:50;;;;;;;2.93;2.70;;;13.00;96.30;;;;;;5073222;28;20107;-61
2021/07/16 10:50:32;;;;;;;2.75;2.60;;;13.10;98.40;;;;;;5073045;28;20617;-59
2021/07/16 10:52:59;;;;;;;3.17;2.88;;;13.00;98.20;;;;;;5072977;28;20099;-61
2021/07/16 10:55:30;;;;;;;3.05;2.80;;;13.10;98.00;;;;;;5072784;28;20020;-62
2021/07/16 10:57:57;;;;;;;2.63;2.42;;;13.00;98.00;;;;;;5072924;28;20033;-59
2021/07/16 11:00:36;;;;;;;3.28;3.00;;;13.10;97.80;;;;;;5072964;28;20111;-61
2021/07/16 11:03:10;;;;;;;3.42;2.63;;;13.00;97.70;;;;;;5072816;28;20099;-62
2021/07/16 11:05:45;;;;;;;3.10;2.80;;;12.90;97.70;;;;;;5073066;28;20063;-62
2021/07/16 11:08:40;;;;;;;3.10;2.90;;;12.90;97.70;;;;;;5072697;28;20031;-62
2021/07/16 11:11:12;;;;;;;7.40;3.05;;;13.00;98.10;;;;;;5071767;28;20115;-62
2021/07/16 11:13:56;;;;;;;3.40;2.97;;;12.90;98.20;;;;;;5072877;28;20027;-61
2021/07/16 11:16:34;;;;;;;4.85;3.67;;;13.00;97.70;;;;;;5072759;28;20020;-61
2021/07/16 11:19:10;;;;;;;3.00;2.80;;;13.00;97.40;;;;;;5072713;28;20201;-60
2021/07/16 11:21:43;;;;;;;3.15;2.95;;;13.00;96.80;;;;;;5072807;28;20016;-61
2021/07/16 11:24:19;;;;;;;3.28;3.08;;;13.00;97.00;;;;;;5072886;28;20158;-62
2021/07/16 11:26:58;;;;;;;3.85;3.25;;;13.00;96.80;;;;;;5072650;28;20532;-62
2021/07/16 11:29:27;;;;;;;3.13;3.00;;;12.90;96.50;;;;;;5072824;28;20063;-60
2021/07/16 11:32:21;;;;;;;3.50;3.30;;;13.10;95.70;;;;;;5072616;28;20485;-62
2021/07/16 11:35:06;;;;;;;3.20;3.00;;;13.10;95.60;;;;;;5072695;28;20050;-62
2021/07/16 11:37:43;;;;;;;3.50;3.30;;;13.10;96.40;;;;;;5072530;28;20362;-61
2021/07/16 11:40:16;;;;;;;4.68;3.38;;;13.00;95.60;;;;;;5072578;28;20418;-59
2021/07/16 11:42:49;;;;;;;6.20;3.47;;;13.20;95.90;;;;;;5072596;28;20477;-60
2021/07/16 11:45:37;;;;;;;3.50;3.20;;;13.10;95.50;;;;;;5072552;28;20016;-60
2021/07/16 11:48:17;;;;;;;3.30;3.00;;;13.00;95.40;;;;;;5072482;28;20478;-60
2021/07/16 11:50:48;;;;;;;3.42;3.13;;;13.20;94.60;;;;;;5072549;28;20078;-61
2021/07/16 11:53:17;;;;;;;3.63;3.15;;;13.10;94.70;;;;;;5072367;28;20035;-62
2021/07/16 11:55:45;;;;;;;3.22;2.88;;;13.00;95.20;;;;;;5072146;28;20024;-62
2021/07/16 11:58:13;;;;;;;4.05;3.00;;;12.90;94.80;;;;;;5072372;28;20056;-61
2021/07/16 12:00:43;;;;;;;3.40;3.10;;;13.10;94.50;;;;;;5072375;28;20074;-59
2021/07/16 12:03:17;;;;;;;3.30;3.00;;;13.10;95.30;;;;;;5072330;28;20029;-61
2021/07/16 12:05:52;;;;;;;3.22;2.92;;;13.00;94.70;;;;;;5072403;28;20036;-61
2021/07/16 12:08:25;;;;;;;3.40;3.20;;;12.90;94.80;;;;;;5072299;28;20100;-61
2021/07/16 12:11:14;;;;;;;3.08;2.80;;;13.00;95.20;;;;;;5072565;28;20029;-59
2021/07/16 12:13:42;;;;;;;3.65;3.30;;;13.00;95.10;;;;;;5072656;28;20033;-61
2021/07/16 12:16:15;;;;;;;3.72;3.35;;;13.20;94.70;;;;;;5072249;28;20028;-60
2021/07/16 12:18:44;;;;;;;3.92;3.70;;;13.10;94.70;;;;;;5072245;28;20388;-61
2021/07/16 12:21:13;;;;;;;3.95;3.70;;;13.10;94.70;;;;;;5073740;28;20023;-60
2021/07/16 12:23:43;;;;;;;4.05;3.80;;;13.10;94.50;;;;;;5075796;28;20024;-60
2021/07/16 12:26:16;;;;;;;4.05;3.70;;;13.10;94.50;;;;;;5074694;28;20028;-60
2021/07/16 12:28:43;;;;;;;4.10;3.70;;;13.00;94.60;;;;;;5075578;28;20481;-62
2021/07/16 12:31:11;;;;;;;4.10;3.70;;;13.10;94.40;;;;;;5075663;28;20070;-62
2021/07/16 12:33:41;;;;;;;3.63;3.33;;;13.00;94.40;;;;;;5075568;28;20035;-61
2021/07/16 12:36:30;;;;;;;3.78;3.45;;;13.00;94.50;;;;;;5075542;28;20024;-63
2021/07/16 12:38:58;;;;;;;3.88;3.50;;;12.80;95.00;;;;;;5075518;28;20027;-61
2021/07/16 12:41:27;;;;;;;3.47;3.28;;;12.80;95.00;;;;;;5075521;28;20078;-61
2021/07/16 12:43:54;;;;;;;3.53;3.22;;;12.70;95.30;;;;;;5075682;28;20029;-61
2021/07/16 12:46:27;;;;;;;3.78;3.30;;;12.50;95.30;;;;;;5074135;28;20024;-61
2021/07/16 12:49:05;;;;;;;4.20;3.90;;;12.50;97.30;;;;;;5075349;28;20024;-61
2021/07/16 12:51:38;;;;;;;3.78;3.47;;;12.40;95.80;;;;;;5075295;28;20029;-60
2021/07/16 12:54:15;;;;;;;4.65;3.80;;;12.30;95.80;;;;;;5074868;28;20025;-60
2021/07/16 12:56:43;;;;;;;4.25;3.85;;;12.30;96.10;;;;;;5074839;28;20128;-60
2021/07/16 12:59:31;;;;;;;4.97;4.00;;;12.10;96.40;;;;;;5075112;28;20017;-61
2021/07/16 13:01:59;;;;;;;3.60;3.33;;;12.10;96.80;;;;;;5075217;28;20480;-61
2021/07/16 13:04:31;;;;;;;5.35;3.60;;;12.10;96.80;;;;;;5074910;28;20024;-61
2021/07/16 13:06:59;;;;;;;4.20;3.90;;;11.90;97.00;;;;;;5074921;28;20017;-61
2021/07/16 13:09:34;;;;;;;4.20;3.92;;;11.70;97.90;;;;;;5075357;28;20016;-61
2021/07/16 13:12:10;;;;;;;4.15;3.83;;;11.70;98.30;;;;;;5074802;28;20107;-61